Home > Products > Valid Products > MTR

000
SAUS44 KLCH 272055
MTRP92
METAR KP92 272053Z AUTO 12004KT 23/19 A2964 RMK AO1 SLP036 T02280194
56037





000
SAUS44 KLCH 271954
MTRP92
METAR KP92 271953Z AUTO 11005KT 21/19 A2966 RMK AO1 SLP043 T02110189





000
SAUS44 KLCH 271855
MTRP92
METAR KP92 271853Z AUTO 11009G17KT 20/18 A2969 RMK AO1 SLP053
T02000183





000
SAUS44 KLCH 271757
MTRP92
METAR KP92 271753Z AUTO 11007G16KT 19/18 A2975 RMK AO1 SLP073 60149
T01890178 10250 20178 50009





000
SAUS44 KLCH 271757
MTRP92
METAR KP92 271753Z AUTO 11007G16KT 19/18 A2975 RMK AO1 SLP073 60149
T01890178 10250 20178 50009





000
SAUS44 KLCH 271655
MTRP92
METAR KP92 271653Z AUTO 12008KT 18/18 A2976 RMK AO1 SLP075 P0012
T01830178





000
SAUS44 KLCH 271554
MTRP92
METAR KP92 271553Z AUTO 08003KT 18/17 A2974 RMK AO1 SLP071 P0066
T01830172





000
SAUS44 KLCH 271454
MTRP92
METAR KP92 271453Z AUTO 36012G23KT 19/18 A2972 RMK AO1 PK WND
01029/1429 SLP064 P0071 60071 T01890183 53028





000
SAUS44 KLCH 271435
MTRP92
SPECI KP92 271434Z AUTO 36014G29KT 19/17 A2974 RMK AO1 PK WND
01029/1429 P0016 T01890172





000
SAUS44 KLCH 271435
MTRP92
SPECI KP92 271434Z AUTO 36014G29KT 19/17 A2974 RMK AO1 PK WND
01029/1429 P0016 T01890172





000
SAUS44 KLCH 271354
MTRP92
METAR KP92 271353Z AUTO 12010KT 24/22 A2962 RMK AO1 SLP029 T02440217





000
SAUS44 KLCH 271354
MTRP92
METAR KP92 271353Z AUTO 12010KT 24/22 A2962 RMK AO1 SLP029 T02440217





000
SAUS44 KLCH 271254
MTRP92
METAR KP92 271253Z AUTO VRB06KT 24/23 A2965 RMK AO1 SLP039 T02440228





000
SAUS44 KLCH 271254
MTRP92
METAR KP92 271253Z AUTO VRB06KT 24/23 A2965 RMK AO1 SLP039 T02440228





000
SAUS44 KLCH 271155
MTRP92
METAR KP92 271153Z AUTO VRB05KT 24/23 A2964 RMK AO1 SLP036 70001
T02390228 10239 20233 58003





000
SAUS44 KLCH 271054
MTRP92
METAR KP92 271053Z AUTO VRB04KT 24/23 A2963 RMK AO1 SLP035 T02390228





000
SAUS44 KLCH 270954
MTRP92
METAR KP92 270953Z AUTO VRB03KT 24/23 A2967 RMK AO1 SLP045 T02390228





000
SAUS44 KLCH 270954
MTRP92
METAR KP92 270953Z AUTO VRB03KT 24/23 A2967 RMK AO1 SLP045 T02390228





000
SAUS44 KLCH 270854
MTRP92
METAR KP92 270853Z AUTO 11004KT 24/23 A2965 RMK AO1 SLP038 T02390228
55006





000
SAUS44 KLCH 270854
MTRP92
METAR KP92 270853Z AUTO 11004KT 24/23 A2965 RMK AO1 SLP038 T02390228
55006





000
SAUS44 KLCH 270755
MTRP92
METAR KP92 270753Z AUTO VRB03KT 23/23 A2964 RMK AO1 SLP036 T02330228





000
SAUS44 KLCH 270755
MTRP92
METAR KP92 270753Z AUTO VRB03KT 23/23 A2964 RMK AO1 SLP036 T02330228





000
SAUS44 KLCH 270654
MTRP92
METAR KP92 270653Z AUTO 00000KT 23/23 A2965 RMK AO1 SLP040 T02330228





000
SAUS44 KLCH 270654
MTRP92
METAR KP92 270653Z AUTO 00000KT 23/23 A2965 RMK AO1 SLP040 T02330228





000
SAUS44 KLCH 270554
MTRP92
METAR KP92 270553Z AUTO VRB03KT 24/23 A2966 RMK AO1 SLP045 T02390228
10256 20233 402830217 55008





000
SAUS44 KLCH 270455
MTRP92
METAR KP92 270453Z AUTO 13008KT 23/23 A2966 RMK AO1 SLP044 T02330228





000
SAUS44 KLCH 270354
MTRP92
METAR KP92 270353Z AUTO 12005KT 24/23 A2968 RMK AO1 SLP050 T02390228





000
SAUS44 KLCH 270254
MTRP92
METAR KP92 270253Z AUTO 00000KT 24/23 A2969 RMK AO1 SLP053 T02390228
51006





000
SAUS44 KLCH 270154
MTRP92
METAR KP92 270153Z AUTO 00000KT 24/23 A2968 RMK AO1 SLP051 T02390233





000
SAUS44 KLCH 270054
MTRP92
METAR KP92 270053Z AUTO 13003KT 24/23 A2968 RMK AO1 SLP050 T02440233





000
SAUS44 KLCH 270054
MTRP92
METAR KP92 270053Z AUTO 13003KT 24/23 A2968 RMK AO1 SLP050 T02440233





000
SAUS44 KLCH 262354
MTRP92
METAR KP92 262353Z AUTO 00000KT 26/23 A2967 RMK AO1 SLP046 T02560233
10278 20250 55010





000
SAUS44 KLCH 262354
MTRP92
METAR KP92 262353Z AUTO 00000KT 26/23 A2967 RMK AO1 SLP046 T02560233
10278 20250 55010





000
SAUS44 KLCH 262254
MTRP92
METAR KP92 262253Z AUTO VRB03KT 26/23 A2967 RMK AO1 SLP046 T02560233





000
SAUS44 KLCH 262254
MTRP92
METAR KP92 262253Z AUTO VRB03KT 26/23 A2967 RMK AO1 SLP046 T02560233





000
SAUS44 KLCH 262154
MTRP92
METAR KP92 262153Z AUTO 15005KT 27/23 A2968 RMK AO1 SLP050 T02670233





000
SAUS44 KLCH 262054
MTRP92
METAR KP92 262053Z AUTO 00000KT 27/23 A2970 RMK AO1 SLP056 T02670228
58011





000
SAUS44 KLCH 262054
MTRP92
METAR KP92 262053Z AUTO 00000KT 27/23 A2970 RMK AO1 SLP056 T02670228
58011





000
SAUS44 KLCH 261955
MTRP92
METAR KP92 261953Z AUTO 00000KT 27/23 A2974 RMK AO1 SLP069 T02720228





000
SAUS44 KLCH 261955
MTRP92
METAR KP92 261953Z AUTO 00000KT 27/23 A2974 RMK AO1 SLP069 T02720228





000
SAUS44 KLCH 261854
MTRP92
METAR KP92 261853Z AUTO 13004KT 26/22 A2973 RMK AO1 SLP068 T02610222





000
SAUS44 KLCH 261854
MTRP92
METAR KP92 261853Z AUTO 13004KT 26/22 A2973 RMK AO1 SLP068 T02610222





000
SAUS44 KLCH 261754
MTRP92
METAR KP92 261753Z AUTO VRB05KT 28/23 A2973 RMK AO1 SLP067 P0001
60001 T02780233 10283 20228 58014





000
SAUS44 KLCH 261754
MTRP92
METAR KP92 261753Z AUTO VRB05KT 28/23 A2973 RMK AO1 SLP067 P0001
60001 T02780233 10283 20228 58014





000
SAUS44 KLCH 261655
MTRP92
METAR KP92 261653Z AUTO 00000KT 26/23 A2977 RMK AO1 SLP081 T02610233





000
SAUS44 KLCH 261655
MTRP92
METAR KP92 261653Z AUTO 00000KT 26/23 A2977 RMK AO1 SLP081 T02610233





000
SAUS44 KLCH 261554
MTRP92
METAR KP92 261553Z AUTO VRB03KT 26/23 A2979 RMK AO1 SLP085 T02560233





000
SAUS44 KLCH 261554
MTRP92
METAR KP92 261553Z AUTO VRB03KT 26/23 A2979 RMK AO1 SLP085 T02560233





000
SAUS44 KLCH 261454
MTRP92
METAR KP92 261453Z AUTO 13004KT 24/23 A2977 RMK AO1 SLP082 T02440233
53013





000
SAUS44 KLCH 261354
MTRP92
METAR KP92 261353Z AUTO 00000KT 24/23 A2977 RMK AO1 SLP079 T02390228





000
SAUS44 KLCH 261354
MTRP92
METAR KP92 261353Z AUTO 00000KT 24/23 A2977 RMK AO1 SLP079 T02390228





000
SAUS44 KLCH 261254
MTRP92
METAR KP92 261253Z AUTO 00000KT 23/23 A2974 RMK AO1 SLP070 T02280228





000
SAUS44 KLCH 261254
MTRP92
METAR KP92 261253Z AUTO 00000KT 23/23 A2974 RMK AO1 SLP070 T02280228





000
SAUS44 KLCH 261154
MTRP92
METAR KP92 261153Z AUTO 00000KT 23/23 A2974 RMK AO1 SLP069 70063
T02330228 10239 20217 53006





000
SAUS44 KLCH 261154
MTRP92
METAR KP92 261153Z AUTO 00000KT 23/23 A2974 RMK AO1 SLP069 70063
T02330228 10239 20217 53006





000
SAUS44 KLCH 261054
MTRP92
METAR KP92 261053Z AUTO 00000KT 23/23 A2972 RMK AO1 SLP065 T02330228





000
SAUS44 KLCH 261054
MTRP92
METAR KP92 261053Z AUTO 00000KT 23/23 A2972 RMK AO1 SLP065 T02330228





000
SAUS44 KLCH 260954
MTRP92
METAR KP92 260953Z AUTO 00000KT 22/21 A2972 RMK AO1 SLP062 T02170211





000
SAUS44 KLCH 260854
MTRP92
METAR KP92 260853Z AUTO 00000KT 22/21 A2972 RMK AO1 SLP063 T02170211
55005





000
SAUS44 KLCH 260854
MTRP92
METAR KP92 260853Z AUTO 00000KT 22/21 A2972 RMK AO1 SLP063 T02170211
55005





000
SAUS44 KLCH 260755
MTRP92
METAR KP92 260753Z AUTO 00000KT 22/22 A2971 RMK AO1 SLP062 T02220217





000
SAUS44 KLCH 260755
MTRP92
METAR KP92 260753Z AUTO 00000KT 22/22 A2971 RMK AO1 SLP062 T02220217





000
SAUS44 KLCH 260655
MTRP92
METAR KP92 260653Z AUTO 00000KT 23/22 A2972 RMK AO1 SLP065 T02280222





000
SAUS44 KLCH 260655
MTRP92
METAR KP92 260653Z AUTO 00000KT 23/22 A2972 RMK AO1 SLP065 T02280222





000
SAUS44 KLCH 260556
MTRP92
METAR KP92 260553Z AUTO 00000KT 23/22 A2973 RMK AO1 SLP068 T02280217
10239 20217 402560206 50000





000
SAUS44 KLCH 260556
MTRP92
METAR KP92 260553Z AUTO 00000KT 23/22 A2973 RMK AO1 SLP068 T02280217
10239 20217 402560206 50000





000
SAUS44 KLCH 260454
MTRP92
METAR KP92 260453Z AUTO VRB04KT 23/22 A2974 RMK AO1 SLP072 T02330217





000
SAUS44 KLCH 260355
MTRP92
METAR KP92 260353Z AUTO 00000KT 23/22 A2974 RMK AO1 SLP071 T02280217





000
SAUS44 KLCH 260254
MTRP92
METAR KP92 260253Z AUTO 00000KT 22/21 A2973 RMK AO1 SLP068 T02220211
53010





000
SAUS44 KLCH 260154
MTRP92
METAR KP92 260153Z AUTO 00000KT 23/21 A2972 RMK AO1 SLP064 T02280211





000
SAUS44 KLCH 260154
MTRP92
METAR KP92 260153Z AUTO 00000KT 23/21 A2972 RMK AO1 SLP064 T02280211





000
SAUS44 KLCH 260054
MTRP92
METAR KP92 260053Z AUTO 00000KT 22/21 A2971 RMK AO1 SLP060 T02220206





000
SAUS44 KLCH 252354
MTRP92
METAR KP92 252353Z AUTO 17003KT 24/20 A2971 RMK AO1 SLP058 60024
T02390200 10239 20206 55022





000
SAUS44 KLCH 252354
MTRP92
METAR KP92 252353Z AUTO 17003KT 24/20 A2971 RMK AO1 SLP058 60024
T02390200 10239 20206 55022





000
SAUS44 KLCH 252255
MTRP92
METAR KP92 252253Z AUTO VRB04KT 24/21 A2970 RMK AO1 SLP055 T02390206





000
SAUS44 KLCH 252255
MTRP92
METAR KP92 252253Z AUTO VRB04KT 24/21 A2970 RMK AO1 SLP055 T02390206





000
SAUS44 KLCH 252154
MTRP92
METAR KP92 252153Z AUTO VRB03KT 21/20 A2975 RMK AO1 SLP075 T02110200





000
SAUS44 KLCH 252055
MTRP92
METAR KP92 252053Z AUTO 00000KT 21/20 A2977 RMK AO1 SLP080 P0009
60024 T02110200 58042





000
SAUS44 KLCH 251954
MTRP92
METAR KP92 251953Z AUTO VRB03KT 21/19 A2983 RMK AO1 SLP101 T02060194





000
SAUS44 KLCH 251954
MTRP92
METAR KP92 251953Z AUTO VRB03KT 21/19 A2983 RMK AO1 SLP101 T02060194





000
SAUS44 KLCH 251854
MTRP92
METAR KP92 251853Z AUTO VRB04KT 21/19 A2984 RMK AO1 SLP105 P0015
T02060194





000
SAUS44 KLCH 251758 COR
MTRP92
METAR KP92 251753Z AUTO 33008G21KT 21/20 A2989 RMK AO1 PK WND
30029/1720 SLP122 P0038 60039 T02110200 10256 20206 53045





000
SAUS44 KLCH 251757 COR
MTRP92
METAR KP92 251753Z AUTO 33008G21KT 21/20 A2989 RMK AO1 PK WND
30029/1720 SLP122 P0038 60039 T02110200 10256 20206 53045





000
SAUS44 KLCH 251755 COR
MTRP92
METAR KP92 251753Z AUTO 33008G21KT 21/20 A2989 RMK AO1 PK WND
30029/1720 SLP122 P0038 60039 T02110200 10256 20206 53045





000
SAUS44 KLCH 251755 COR
MTRP92
METAR KP92 251753Z AUTO 33008G21KT 21/20 A2989 RMK AO1 PK WND
30029/1720 SLP122 P0038 60039 T02110200 10256 20206 53045





000
SAUS44 KLCH 251655
MTRP92
METAR KP92 251653Z AUTO 31004KT 25/24 A2981 RMK AO1 SLP093 T02500239





000
SAUS44 KLCH 251555
MTRP92
METAR KP92 251553Z AUTO 00000KT 24/24 A2977 RMK AO1 SLP082 P0001
T02440239





000
SAUS44 KLCH 251454
MTRP92
METAR KP92 251453Z AUTO VRB06KT 25/24 A2976 RMK AO1 SLP077 T02500239
58014





000
SAUS44 KLCH 251354
MTRP92
METAR KP92 251353Z AUTO VRB04KT 24/24 A2977 RMK AO1 SLP081 T02440239





000
SAUS44 KLCH 251354
MTRP92
METAR KP92 251353Z AUTO VRB04KT 24/24 A2977 RMK AO1 SLP081 T02440239





000
SAUS44 KLCH 251254
MTRP92
METAR KP92 251253Z AUTO 00000KT 24/23 A2980 RMK AO1 SLP089 T02440233





000
SAUS44 KLCH 251154
MTRP92
METAR KP92 251153Z AUTO 00000KT 23/23 A2980 RMK AO1 SLP091 T02280228
10244 20228 56008





000
SAUS44 KLCH 251154
MTRP92
METAR KP92 251153Z AUTO 00000KT 23/23 A2980 RMK AO1 SLP091 T02280228
10244 20228 56008





000
SAUS44 KLCH 251054
MTRP92
METAR KP92 251053Z AUTO 00000KT 23/23 A2981 RMK AO1 SLP095 T02330228





000
SAUS44 KLCH 251054
MTRP92
METAR KP92 251053Z AUTO 00000KT 23/23 A2981 RMK AO1 SLP095 T02330228





000
SAUS44 KLCH 250954
MTRP92
METAR KP92 250953Z AUTO VRB03KT 24/23 A2981 RMK AO1 SLP092 T02390228





000
SAUS44 KLCH 250854
MTRP92
METAR KP92 250853Z AUTO 25005KT 24/23 A2983 RMK AO1 SLP099 T02440233
53015





000
SAUS44 KLCH 250754
MTRP92
METAR KP92 250753Z AUTO 23004KT 24/24 A2981 RMK AO1 SLP094 T02390239





000
SAUS44 KLCH 250654
MTRP92
METAR KP92 250653Z AUTO VRB03KT 24/24 A2979 RMK AO1 SLP087 T02440239





000
SAUS44 KLCH 250555
MTRP92
METAR KP92 250553Z AUTO VRB05KT 24/24 A2978 RMK AO1 SLP084 T02440239
10256 20239 402780228 55003





000
SAUS44 KLCH 250455
MTRP92
METAR KP92 250453Z AUTO VRB05KT 24/23 A2977 RMK AO1 SLP082 T02390233





000
SAUS44 KLCH 250455
MTRP92
METAR KP92 250453Z AUTO VRB05KT 24/23 A2977 RMK AO1 SLP082 T02390233





000
SAUS44 KLCH 250354
MTRP92
METAR KP92 250353Z AUTO VRB04KT 24/24 A2979 RMK AO1 SLP087 T02440239





000
SAUS44 KLCH 250254
MTRP92
METAR KP92 250253Z AUTO 14007KT 110V180 24/24 A2979 RMK AO1 SLP087
T02440239 58007





000
SAUS44 KLCH 250254
MTRP92
METAR KP92 250253Z AUTO 14007KT 110V180 24/24 A2979 RMK AO1 SLP087
T02440239 58007





000
SAUS44 KLCH 250154
MTRP92
METAR KP92 250153Z AUTO 14006KT 24/24 A2981 RMK AO1 SLP093 T02440239





000
SAUS44 KLCH 250054
MTRP92
METAR KP92 250053Z AUTO 14005KT 25/24 A2980 RMK AO1 SLP092 T02500239





000
SAUS44 KLCH 242355
MTRP92
METAR KP92 242353Z AUTO 13007KT 26/24 A2981 RMK AO1 SLP094 T02560244
10278 20256 58012





000
SAUS44 KLCH 242355
MTRP92
METAR KP92 242353Z AUTO 13007KT 26/24 A2981 RMK AO1 SLP094 T02560244
10278 20256 58012





000
SAUS44 KLCH 242254
MTRP92
METAR KP92 242253Z AUTO 13006KT 27/24 A2982 RMK AO1 SLP099 T02670244





000
SAUS44 KLCH 242154
MTRP92
METAR KP92 242153Z AUTO 13008KT 27/24 A2983 RMK AO1 SLP102 T02670244





    US Dept of Commerce
    National Oceanic and Atmospheric Administration
    National Weather Service
    1325 East West Highway
    Silver Spring, MD 20910
    Page Author: NWS Internet Services Team
Disclaimer
Information Quality
Credits
Glossary
Privacy Policy
Freedom of Information Act (FOIA)
About Us
Career Opportunities